createdAt,value
2019-06-10T00:00:01.355Z,93
2019-06-10T00:05:02.411Z,93
2019-06-10T00:10:01.055Z,93
2019-06-10T00:15:01.771Z,93
2019-06-10T00:20:02.356Z,93
2019-06-10T00:25:02.331Z,93
2019-06-10T00:30:02.867Z,93
2019-06-10T00:35:01.884Z,93
2019-06-10T00:40:02.530Z,93
2019-06-10T00:45:02.608Z,93
2019-06-10T00:50:02.833Z,93
2019-06-10T00:55:01.614Z,93
2019-06-10T01:00:01.621Z,93
2019-06-10T01:05:00.771Z,93
2019-06-10T01:10:01.073Z,93
2019-06-10T01:15:00.849Z,93
2019-06-10T01:20:01.470Z,93
2019-06-10T01:25:01.620Z,93
2019-06-10T01:30:01.677Z,93
2019-06-10T01:35:01.219Z,93
2019-06-10T01:40:00.744Z,93
2019-06-10T01:45:01.138Z,93
2019-06-10T01:50:00.663Z,93
2019-06-10T01:55:01.493Z,93
2019-06-10T02:00:00.936Z,93
2019-06-10T02:05:01.503Z,93
2019-06-10T02:10:01.087Z,93
2019-06-10T02:15:01.234Z,93
2019-06-10T02:20:01.096Z,93
2019-06-10T02:25:01.209Z,93
2019-06-10T02:30:01.755Z,93
2019-06-10T02:35:08.467Z,93
2019-06-10T02:40:04.061Z,93
2019-06-10T02:45:03.224Z,93
2019-06-10T02:50:04.200Z,93
2019-06-10T02:55:03.721Z,93
2019-06-10T03:00:04.198Z,93
2019-06-10T03:05:00.106Z,93
2019-06-10T03:10:00.127Z,93
2019-06-10T03:15:02.061Z,93
2019-06-10T03:20:02.266Z,93
2019-06-10T03:25:00.100Z,93
2019-06-10T03:30:02.952Z,93
2019-06-10T03:35:00.147Z,93
2019-06-10T03:40:02.077Z,93
2019-06-10T03:45:00.067Z,93
2019-06-10T03:50:02.994Z,93
2019-06-10T03:55:00.119Z,93
2019-06-10T04:00:02.228Z,93
2019-06-10T04:05:02.566Z,93
2019-06-10T04:10:02.221Z,93
2019-06-10T04:15:00.109Z,93
2019-06-10T04:20:09.101Z,93
2019-06-10T04:25:02.793Z,93
2019-06-10T04:30:00.069Z,93
2019-06-10T04:35:02.229Z,93
2019-06-10T04:40:02.611Z,93
2019-06-10T04:45:00.118Z,93
2019-06-10T04:50:00.112Z,93
2019-06-10T04:55:02.274Z,93
2019-06-10T05:00:02.534Z,94
2019-06-10T05:05:02.673Z,94
2019-06-10T05:10:00.103Z,94
2019-06-10T05:15:00.119Z,94
2019-06-10T05:20:02.260Z,94
2019-06-10T05:25:02.243Z,95
2019-06-10T05:30:02.243Z,95
2019-06-10T05:35:00.097Z,95
2019-06-10T05:40:02.170Z,95
2019-06-10T05:45:00.109Z,95
2019-06-10T05:50:02.716Z,95
2019-06-10T05:55:02.718Z,95
2019-06-10T06:00:00.101Z,95
2019-06-10T06:05:02.413Z,95
2019-06-10T06:10:02.255Z,95
2019-06-10T06:15:02.178Z,94
2019-06-10T06:20:02.557Z,87
2019-06-10T06:25:03.322Z,86
2019-06-10T06:30:00.071Z,90
2019-06-10T06:35:02.067Z,88
2019-06-10T06:40:02.609Z,90
2019-06-10T06:45:00.104Z,94
2019-06-10T06:50:02.517Z,95
2019-06-10T06:55:02.315Z,95
2019-06-10T07:00:00.128Z,95
2019-06-10T07:05:00.074Z,95
2019-06-10T07:10:00.121Z,95
2019-06-10T07:15:00.118Z,95
2019-06-10T07:20:00.117Z,95
2019-06-10T07:25:03.940Z,93
2019-06-10T07:30:00.072Z,89
2019-06-10T07:35:00.132Z,86
2019-06-10T07:40:00.110Z,83
2019-06-10T07:45:02.396Z,76
2019-06-10T07:50:02.512Z,73
2019-06-10T07:55:02.333Z,68
2019-06-10T08:00:02.908Z,67
2019-06-10T08:05:00.119Z,62
2019-06-10T08:10:02.710Z,61
2019-06-10T08:15:02.509Z,60
2019-06-10T08:20:02.406Z,58
2019-06-10T08:25:00.119Z,56
2019-06-10T08:30:15.053Z,56
2019-06-10T08:35:02.598Z,55
2019-06-10T08:40:00.101Z,54
2019-06-10T08:45:00.798Z,53
2019-06-10T08:50:02.408Z,52
2019-06-10T08:55:00.128Z,46
2019-06-10T09:00:02.854Z,40
2019-06-10T09:05:00.103Z,38
2019-06-10T09:10:02.777Z,37
2019-06-10T09:15:02.684Z,36
2019-06-10T09:20:02.386Z,35
2019-06-10T09:25:02.724Z,36
2019-06-10T09:30:02.800Z,37
2019-06-10T09:35:03.193Z,38
2019-06-10T09:40:00.095Z,39
2019-06-10T09:45:02.421Z,42
2019-06-10T09:50:00.111Z,43
2019-06-10T09:55:02.496Z,44
2019-06-10T10:00:03.052Z,45
2019-06-10T10:05:00.078Z,46
2019-06-10T10:10:00.120Z,46
2019-06-10T10:15:16.155Z,46
2019-06-10T10:20:00.190Z,45
2019-06-10T10:25:02.759Z,44
2019-06-10T10:30:00.112Z,42
2019-06-10T10:35:02.999Z,40
2019-06-10T10:40:00.119Z,39
2019-06-10T10:45:02.567Z,35
2019-06-10T10:50:02.651Z,36
2019-06-10T10:55:04.178Z,39
2019-06-10T11:00:00.111Z,40
2019-06-10T11:45:02.761Z,41
2019-06-10T11:50:02.824Z,40
2019-06-10T11:55:11.493Z,39
2019-06-10T12:00:00.105Z,40
2019-06-10T12:05:01.439Z,41
2019-06-10T12:10:01.155Z,42
2019-06-10T12:15:01.433Z,42
2019-06-10T12:20:02.947Z,41
2019-06-10T12:25:24.779Z,40
2019-06-10T12:30:04.272Z,40
2019-06-10T12:35:02.388Z,41
2019-06-10T12:40:02.056Z,40
2019-06-10T12:45:01.620Z,39
2019-06-10T12:50:01.570Z,39
2019-06-10T12:55:00.075Z,38
2019-06-10T13:00:00.951Z,38
2019-06-10T13:05:03.074Z,38
2019-06-10T13:10:00.103Z,38
2019-06-10T13:15:02.837Z,38
2019-06-10T13:20:01.786Z,38
2019-06-10T13:25:00.602Z,38
2019-06-10T13:30:00.112Z,38
2019-06-10T13:35:00.549Z,39
2019-06-10T13:40:01.350Z,39
2019-06-10T13:45:00.075Z,39
2019-06-10T13:50:01.350Z,39
2019-06-10T13:55:01.119Z,40
2019-06-10T14:00:02.682Z,39
2019-06-10T14:05:03.430Z,40
2019-06-10T14:10:00.915Z,41
2019-06-10T14:15:03.849Z,41
2019-06-10T14:20:00.365Z,41
2019-06-10T14:25:02.749Z,42
2019-06-10T14:30:02.690Z,41
2019-06-10T14:35:00.114Z,41
2019-06-10T14:40:00.114Z,41
2019-06-10T14:45:00.097Z,42
2019-06-10T14:50:00.109Z,41
2019-06-10T14:55:02.405Z,43
2019-06-10T15:00:02.677Z,43
2019-06-10T15:05:02.610Z,43
2019-06-10T15:10:00.110Z,43
2019-06-10T15:15:00.168Z,42
2019-06-10T15:20:03.451Z,43
2019-06-10T15:25:03.032Z,44
2019-06-10T15:30:00.122Z,43
2019-06-10T15:35:00.120Z,43
2019-06-10T15:40:00.110Z,43
2019-06-10T15:45:02.282Z,44
2019-06-10T15:50:00.141Z,44
2019-06-10T15:55:00.109Z,45
2019-06-10T16:00:02.751Z,45
2019-06-10T16:05:00.126Z,45
2019-06-10T16:10:02.666Z,46
2019-06-10T16:15:02.484Z,46
2019-06-10T16:20:00.128Z,47
2019-06-10T16:25:00.077Z,47
2019-06-10T16:30:02.567Z,48
2019-06-10T16:35:00.122Z,48
2019-06-10T16:40:00.080Z,48
2019-06-10T16:45:02.347Z,49
2019-06-10T16:50:02.985Z,49
2019-06-10T16:55:02.206Z,49
2019-06-10T17:00:02.708Z,49
2019-06-10T17:05:00.108Z,49
2019-06-10T17:10:02.286Z,49
2019-06-10T17:15:00.111Z,49
2019-06-10T17:20:03.527Z,49
2019-06-10T17:25:00.107Z,50
2019-06-10T17:30:02.678Z,50
2019-06-10T17:35:02.279Z,50
2019-06-10T17:40:02.473Z,50
2019-06-10T17:45:02.357Z,50
2019-06-10T17:50:02.267Z,50
2019-06-10T17:55:00.120Z,51
2019-06-10T18:00:00.121Z,51
2019-06-10T18:05:00.102Z,52
2019-06-10T18:10:02.509Z,52
2019-06-10T18:15:00.110Z,53
2019-06-10T18:20:02.627Z,53
2019-06-10T18:25:00.136Z,53
2019-06-10T18:30:02.278Z,54
2019-06-10T18:35:02.753Z,54
2019-06-10T18:40:02.208Z,54
2019-06-10T18:45:02.581Z,55
2019-06-10T18:50:00.115Z,56
2019-06-10T18:55:00.124Z,57
2019-06-10T19:00:00.107Z,57
2019-06-10T19:05:02.651Z,58
2019-06-10T19:10:02.256Z,58
2019-06-10T19:15:02.629Z,58
2019-06-10T19:20:00.116Z,59
2019-06-10T19:25:00.125Z,62
2019-06-10T19:30:00.114Z,66
2019-06-10T19:35:02.675Z,74
2019-06-10T19:40:00.168Z,95
2019-06-10T19:45:00.140Z,95
2019-06-10T19:50:00.118Z,95
2019-06-10T19:55:02.496Z,95
2019-06-10T20:00:08.269Z,95
2019-06-10T20:05:02.190Z,95
2019-06-10T20:10:02.676Z,95
2019-06-10T20:15:02.228Z,94
2019-06-10T20:20:02.355Z,94
2019-06-10T20:25:00.108Z,94
2019-06-10T20:30:09.760Z,94
2019-06-10T20:35:02.777Z,94
2019-06-10T20:40:03.312Z,94
2019-06-10T20:45:02.733Z,94
2019-06-10T20:50:00.124Z,94
2019-06-10T20:55:02.400Z,95
2019-06-10T21:00:00.129Z,95
2019-06-10T21:05:02.564Z,95
2019-06-10T21:10:02.561Z,95
2019-06-10T21:15:02.265Z,95
2019-06-10T21:20:00.157Z,95
2019-06-10T21:25:02.329Z,95
2019-06-10T21:30:02.816Z,95
2019-06-10T21:35:00.113Z,95
2019-06-10T21:40:03.033Z,95
2019-06-10T21:45:00.143Z,95
2019-06-10T21:50:00.123Z,95
2019-06-10T21:55:02.777Z,95
2019-06-10T22:00:02.367Z,95
2019-06-10T22:05:02.674Z,95
2019-06-10T22:10:02.342Z,94
2019-06-10T22:15:00.117Z,94
2019-06-10T22:20:00.119Z,94
2019-06-10T22:25:02.757Z,94
2019-06-10T22:30:02.666Z,94
2019-06-10T22:35:00.097Z,94
2019-06-10T22:40:00.117Z,94
2019-06-10T22:45:00.294Z,94
2019-06-10T22:50:04.711Z,94
2019-06-10T22:55:00.888Z,94
2019-06-10T23:00:00.107Z,94
2019-06-10T23:05:04.575Z,94
2019-06-10T23:10:00.108Z,94
2019-06-10T23:15:02.651Z,94
2019-06-10T23:20:00.102Z,94
2019-06-10T23:25:02.641Z,94
2019-06-10T23:30:02.726Z,94
2019-06-10T23:35:01.133Z,94
2019-06-10T23:40:03.727Z,94
2019-06-10T23:45:04.442Z,94
2019-06-10T23:50:02.793Z,94
2019-06-10T23:55:02.617Z,94
